sensor_id;sensor_type;location;lat;lon;timestamp;P1;durP1;ratioP1;P2;durP2;ratioP2
36659;SDS011;22654;51.054;3.654;2022-10-16T00:00:32;2.08;;;1.10;;
36659;SDS011;22654;51.054;3.654;2022-10-16T00:03:02;1.05;;;0.90;;
36659;SDS011;22654;51.054;3.654;2022-10-16T00:05:29;4.45;;;1.10;;
36659;SDS011;22654;51.054;3.654;2022-10-16T00:07:55;4.97;;;1.15;;
36659;SDS011;22654;51.054;3.654;2022-10-16T00:10:21;3.58;;;1.50;;
36659;SDS011;22654;51.054;3.654;2022-10-16T00:12:47;2.65;;;1.08;;
36659;SDS011;22654;51.054;3.654;2022-10-16T00:15:13;2.63;;;1.58;;
36659;SDS011;22654;51.054;3.654;2022-10-16T00:17:40;1.33;;;1.23;;
36659;SDS011;22654;51.054;3.654;2022-10-16T00:20:08;3.47;;;1.17;;
36659;SDS011;22654;51.054;3.654;2022-10-16T00:22:34;2.67;;;1.10;;
36659;SDS011;22654;51.054;3.654;2022-10-16T00:25:00;1.58;;;1.05;;
36659;SDS011;22654;51.054;3.654;2022-10-16T00:27:26;5.80;;;1.30;;
36659;SDS011;22654;51.054;3.654;2022-10-16T00:29:52;2.22;;;1.40;;
36659;SDS011;22654;51.054;3.654;2022-10-16T00:32:19;4.85;;;1.30;;
36659;SDS011;22654;51.054;3.654;2022-10-16T00:34:45;2.95;;;1.30;;
36659;SDS011;22654;51.054;3.654;2022-10-16T00:37:11;2.33;;;1.20;;
36659;SDS011;22654;51.054;3.654;2022-10-16T00:39:38;3.75;;;1.60;;
36659;SDS011;22654;51.054;3.654;2022-10-16T00:42:04;1.45;;;1.35;;
36659;SDS011;22654;51.054;3.654;2022-10-16T00:44:49;4.07;;;1.75;;
36659;SDS011;22654;51.054;3.654;2022-10-16T00:47:26;1.77;;;1.63;;
36659;SDS011;22654;51.054;3.654;2022-10-16T00:50:09;1.55;;;1.20;;
36659;SDS011;22654;51.054;3.654;2022-10-16T00:52:44;3.17;;;1.40;;
36659;SDS011;22654;51.054;3.654;2022-10-16T00:55:13;1.80;;;1.27;;
36659;SDS011;22654;51.054;3.654;2022-10-16T00:57:40;3.92;;;1.63;;
36659;SDS011;22654;51.054;3.654;2022-10-16T01:00:08;2.40;;;1.30;;
36659;SDS011;22654;51.054;3.654;2022-10-16T01:02:36;1.42;;;1.33;;
36659;SDS011;22654;51.054;3.654;2022-10-16T01:05:02;2.00;;;1.58;;
36659;SDS011;22654;51.054;3.654;2022-10-16T01:10:09;1.92;;;1.83;;
36659;SDS011;22654;51.054;3.654;2022-10-16T01:12:58;3.47;;;1.52;;
36659;SDS011;22654;51.054;3.654;2022-10-16T01:15:30;4.18;;;1.98;;
36659;SDS011;22654;51.054;3.654;2022-10-16T01:20:34;2.30;;;1.98;;
36659;SDS011;22654;51.054;3.654;2022-10-16T01:23:27;5.47;;;1.88;;
36659;SDS011;22654;51.054;3.654;2022-10-16T01:28:51;2.17;;;1.65;;
36659;SDS011;22654;51.054;3.654;2022-10-16T01:31:27;1.80;;;1.70;;
36659;SDS011;22654;51.054;3.654;2022-10-16T01:34:02;3.75;;;1.95;;
36659;SDS011;22654;51.054;3.654;2022-10-16T01:36:42;2.38;;;1.90;;
36659;SDS011;22654;51.054;3.654;2022-10-16T01:39:35;2.80;;;2.10;;
36659;SDS011;22654;51.054;3.654;2022-10-16T01:42:06;2.03;;;1.83;;
36659;SDS011;22654;51.054;3.654;2022-10-16T01:44:36;3.25;;;1.95;;
36659;SDS011;22654;51.054;3.654;2022-10-16T01:47:03;2.58;;;1.95;;
36659;SDS011;22654;51.054;3.654;2022-10-16T01:49:31;2.88;;;1.55;;
36659;SDS011;22654;51.054;3.654;2022-10-16T01:52:00;4.88;;;2.30;;
36659;SDS011;22654;51.054;3.654;2022-10-16T01:54:30;3.33;;;2.13;;
36659;SDS011;22654;51.054;3.654;2022-10-16T01:56:59;4.35;;;1.55;;
36659;SDS011;22654;51.054;3.654;2022-10-16T01:59:30;1.70;;;1.55;;
36659;SDS011;22654;51.054;3.654;2022-10-16T02:02:04;2.13;;;1.60;;
36659;SDS011;22654;51.054;3.654;2022-10-16T02:04:34;4.15;;;1.80;;
36659;SDS011;22654;51.054;3.654;2022-10-16T02:07:06;1.77;;;1.60;;
36659;SDS011;22654;51.054;3.654;2022-10-16T02:09:33;4.43;;;2.13;;
36659;SDS011;22654;51.054;3.654;2022-10-16T02:12:01;4.80;;;1.90;;
36659;SDS011;22654;51.054;3.654;2022-10-16T02:14:39;5.53;;;2.05;;
36659;SDS011;22654;51.054;3.654;2022-10-16T02:17:12;4.18;;;1.70;;
36659;SDS011;22654;51.054;3.654;2022-10-16T02:19:40;1.85;;;1.70;;
36659;SDS011;22654;51.054;3.654;2022-10-16T02:22:08;4.30;;;1.88;;
36659;SDS011;22654;51.054;3.654;2022-10-16T02:24:47;2.17;;;1.60;;
36659;SDS011;22654;51.054;3.654;2022-10-16T02:27:26;2.38;;;1.80;;
36659;SDS011;22654;51.054;3.654;2022-10-16T02:29:58;4.85;;;2.00;;
36659;SDS011;22654;51.054;3.654;2022-10-16T02:32:39;2.42;;;1.90;;
36659;SDS011;22654;51.054;3.654;2022-10-16T02:35:07;6.25;;;2.17;;
36659;SDS011;22654;51.054;3.654;2022-10-16T02:37:34;2.35;;;1.75;;
36659;SDS011;22654;51.054;3.654;2022-10-16T02:40:00;3.83;;;2.05;;
36659;SDS011;22654;51.054;3.654;2022-10-16T02:42:29;3.08;;;1.83;;
36659;SDS011;22654;51.054;3.654;2022-10-16T02:44:59;5.50;;;1.60;;
36659;SDS011;22654;51.054;3.654;2022-10-16T02:47:25;3.72;;;1.95;;
36659;SDS011;22654;51.054;3.654;2022-10-16T02:49:51;3.22;;;1.80;;
36659;SDS011;22654;51.054;3.654;2022-10-16T02:52:16;4.80;;;2.45;;
36659;SDS011;22654;51.054;3.654;2022-10-16T02:54:42;4.20;;;2.10;;
36659;SDS011;22654;51.054;3.654;2022-10-16T02:57:11;2.50;;;1.73;;
36659;SDS011;22654;51.054;3.654;2022-10-16T02:59:37;3.95;;;1.95;;
36659;SDS011;22654;51.054;3.654;2022-10-16T03:02:02;2.33;;;1.80;;
36659;SDS011;22654;51.054;3.654;2022-10-16T03:04:28;3.47;;;2.40;;
36659;SDS011;22654;51.054;3.654;2022-10-16T03:06:54;8.43;;;2.50;;
36659;SDS011;22654;51.054;3.654;2022-10-16T03:09:20;5.20;;;2.28;;
36659;SDS011;22654;51.054;3.654;2022-10-16T03:11:46;4.00;;;2.20;;
36659;SDS011;22654;51.054;3.654;2022-10-16T03:14:12;4.70;;;2.10;;
36659;SDS011;22654;51.054;3.654;2022-10-16T03:16:37;5.07;;;1.92;;
36659;SDS011;22654;51.054;3.654;2022-10-16T03:19:03;4.03;;;2.22;;
36659;SDS011;22654;51.054;3.654;2022-10-16T03:21:29;6.70;;;2.28;;
36659;SDS011;22654;51.054;3.654;2022-10-16T03:23:55;2.85;;;1.98;;
36659;SDS011;22654;51.054;3.654;2022-10-16T03:26:20;2.95;;;2.42;;
36659;SDS011;22654;51.054;3.654;2022-10-16T03:28:46;3.15;;;2.15;;
36659;SDS011;22654;51.054;3.654;2022-10-16T03:31:12;5.10;;;2.13;;
36659;SDS011;22654;51.054;3.654;2022-10-16T03:33:38;2.58;;;2.30;;
36659;SDS011;22654;51.054;3.654;2022-10-16T03:36:04;4.18;;;2.15;;
36659;SDS011;22654;51.054;3.654;2022-10-16T03:38:29;4.10;;;2.70;;
36659;SDS011;22654;51.054;3.654;2022-10-16T03:40:55;4.78;;;2.30;;
36659;SDS011;22654;51.054;3.654;2022-10-16T03:43:21;4.13;;;2.05;;
36659;SDS011;22654;51.054;3.654;2022-10-16T03:45:47;2.40;;;2.00;;
36659;SDS011;22654;51.054;3.654;2022-10-16T03:48:15;6.70;;;2.70;;
36659;SDS011;22654;51.054;3.654;2022-10-16T03:50:40;3.88;;;2.30;;
36659;SDS011;22654;51.054;3.654;2022-10-16T03:53:07;2.75;;;2.22;;
36659;SDS011;22654;51.054;3.654;2022-10-16T03:55:33;3.95;;;2.22;;
36659;SDS011;22654;51.054;3.654;2022-10-16T03:57:59;5.50;;;2.38;;
36659;SDS011;22654;51.054;3.654;2022-10-16T04:00:25;6.80;;;2.60;;
36659;SDS011;22654;51.054;3.654;2022-10-16T04:02:51;7.78;;;3.60;;
36659;SDS011;22654;51.054;3.654;2022-10-16T04:05:17;3.80;;;2.67;;
36659;SDS011;22654;51.054;3.654;2022-10-16T04:07:43;12.35;;;3.05;;
36659;SDS011;22654;51.054;3.654;2022-10-16T04:10:09;6.90;;;2.53;;
36659;SDS011;22654;51.054;3.654;2022-10-16T04:12:35;4.57;;;2.30;;
36659;SDS011;22654;51.054;3.654;2022-10-16T04:15:01;4.43;;;2.65;;
36659;SDS011;22654;51.054;3.654;2022-10-16T04:17:27;5.70;;;2.55;;
36659;SDS011;22654;51.054;3.654;2022-10-16T04:19:53;2.60;;;2.38;;
36659;SDS011;22654;51.054;3.654;2022-10-16T04:22:21;5.93;;;2.35;;
36659;SDS011;22654;51.054;3.654;2022-10-16T04:24:50;5.65;;;2.50;;
36659;SDS011;22654;51.054;3.654;2022-10-16T04:27:16;6.45;;;2.30;;
36659;SDS011;22654;51.054;3.654;2022-10-16T04:29:42;7.20;;;2.25;;
36659;SDS011;22654;51.054;3.654;2022-10-16T04:32:08;3.83;;;2.25;;
36659;SDS011;22654;51.054;3.654;2022-10-16T04:34:34;3.53;;;2.22;;
36659;SDS011;22654;51.054;3.654;2022-10-16T04:37:00;3.38;;;2.70;;
36659;SDS011;22654;51.054;3.654;2022-10-16T04:39:26;3.45;;;2.20;;
36659;SDS011;22654;51.054;3.654;2022-10-16T04:41:52;3.60;;;2.60;;
36659;SDS011;22654;51.054;3.654;2022-10-16T04:44:17;4.60;;;1.92;;
36659;SDS011;22654;51.054;3.654;2022-10-16T04:46:43;3.95;;;2.10;;
36659;SDS011;22654;51.054;3.654;2022-10-16T04:49:09;4.63;;;2.17;;
36659;SDS011;22654;51.054;3.654;2022-10-16T04:51:35;4.32;;;2.38;;
36659;SDS011;22654;51.054;3.654;2022-10-16T04:54:01;5.97;;;2.80;;
36659;SDS011;22654;51.054;3.654;2022-10-16T04:56:27;5.03;;;2.88;;
36659;SDS011;22654;51.054;3.654;2022-10-16T04:58:53;3.05;;;2.10;;
36659;SDS011;22654;51.054;3.654;2022-10-16T05:01:18;7.00;;;2.70;;
36659;SDS011;22654;51.054;3.654;2022-10-16T05:03:44;11.88;;;3.83;;
36659;SDS011;22654;51.054;3.654;2022-10-16T05:06:10;3.75;;;2.30;;
36659;SDS011;22654;51.054;3.654;2022-10-16T05:08:36;5.68;;;2.28;;
36659;SDS011;22654;51.054;3.654;2022-10-16T05:11:02;5.47;;;2.78;;
36659;SDS011;22654;51.054;3.654;2022-10-16T05:13:27;7.15;;;2.70;;
36659;SDS011;22654;51.054;3.654;2022-10-16T05:15:53;5.60;;;2.95;;
36659;SDS011;22654;51.054;3.654;2022-10-16T05:18:19;5.55;;;2.70;;
36659;SDS011;22654;51.054;3.654;2022-10-16T05:20:45;3.75;;;2.60;;
36659;SDS011;22654;51.054;3.654;2022-10-16T05:23:11;4.65;;;2.20;;
36659;SDS011;22654;51.054;3.654;2022-10-16T05:25:37;7.03;;;2.42;;
36659;SDS011;22654;51.054;3.654;2022-10-16T05:28:03;4.70;;;2.10;;
36659;SDS011;22654;51.054;3.654;2022-10-16T05:30:28;3.67;;;2.00;;
36659;SDS011;22654;51.054;3.654;2022-10-16T05:32:54;3.08;;;2.00;;
36659;SDS011;22654;51.054;3.654;2022-10-16T05:35:20;5.20;;;1.92;;
36659;SDS011;22654;51.054;3.654;2022-10-16T05:37:46;1.90;;;1.70;;
36659;SDS011;22654;51.054;3.654;2022-10-16T05:40:13;6.38;;;1.90;;
36659;SDS011;22654;51.054;3.654;2022-10-16T05:42:40;3.72;;;2.33;;
36659;SDS011;22654;51.054;3.654;2022-10-16T05:45:09;3.90;;;2.00;;
36659;SDS011;22654;51.054;3.654;2022-10-16T05:47:36;4.28;;;2.05;;
36659;SDS011;22654;51.054;3.654;2022-10-16T05:50:02;3.42;;;1.98;;
36659;SDS011;22654;51.054;3.654;2022-10-16T05:52:29;6.82;;;2.17;;
36659;SDS011;22654;51.054;3.654;2022-10-16T05:55:15;5.22;;;1.98;;
36659;SDS011;22654;51.054;3.654;2022-10-16T05:57:40;4.55;;;1.98;;
36659;SDS011;22654;51.054;3.654;2022-10-16T06:00:06;4.47;;;2.13;;
36659;SDS011;22654;51.054;3.654;2022-10-16T06:02:37;3.65;;;2.28;;
36659;SDS011;22654;51.054;3.654;2022-10-16T06:05:04;6.30;;;2.42;;
36659;SDS011;22654;51.054;3.654;2022-10-16T06:07:33;6.80;;;2.72;;
36659;SDS011;22654;51.054;3.654;2022-10-16T06:10:00;8.95;;;2.13;;
36659;SDS011;22654;51.054;3.654;2022-10-16T06:12:27;6.38;;;2.72;;
36659;SDS011;22654;51.054;3.654;2022-10-16T06:14:52;6.85;;;2.42;;
36659;SDS011;22654;51.054;3.654;2022-10-16T06:17:18;2.83;;;2.13;;
36659;SDS011;22654;51.054;3.654;2022-10-16T06:19:44;3.28;;;2.47;;
36659;SDS011;22654;51.054;3.654;2022-10-16T06:22:10;6.72;;;2.40;;
36659;SDS011;22654;51.054;3.654;2022-10-16T06:24:36;3.47;;;2.17;;
36659;SDS011;22654;51.054;3.654;2022-10-16T06:27:02;2.97;;;2.13;;
36659;SDS011;22654;51.054;3.654;2022-10-16T06:29:32;3.28;;;2.60;;
36659;SDS011;22654;51.054;3.654;2022-10-16T06:31:58;6.43;;;3.25;;
36659;SDS011;22654;51.054;3.654;2022-10-16T06:34:25;7.22;;;2.42;;
36659;SDS011;22654;51.054;3.654;2022-10-16T06:36:51;5.18;;;2.65;;
36659;SDS011;22654;51.054;3.654;2022-10-16T06:39:16;3.65;;;2.42;;
36659;SDS011;22654;51.054;3.654;2022-10-16T06:41:42;4.50;;;2.63;;
36659;SDS011;22654;51.054;3.654;2022-10-16T06:44:17;4.30;;;2.22;;
36659;SDS011;22654;51.054;3.654;2022-10-16T06:46:43;5.03;;;2.22;;
36659;SDS011;22654;51.054;3.654;2022-10-16T06:49:08;3.67;;;2.42;;
36659;SDS011;22654;51.054;3.654;2022-10-16T06:51:34;6.55;;;2.28;;
36659;SDS011;22654;51.054;3.654;2022-10-16T06:54:01;5.30;;;2.20;;
36659;SDS011;22654;51.054;3.654;2022-10-16T06:56:28;4.05;;;2.13;;
36659;SDS011;22654;51.054;3.654;2022-10-16T06:58:57;4.50;;;2.70;;
36659;SDS011;22654;51.054;3.654;2022-10-16T07:01:23;17.92;;;2.90;;
36659;SDS011;22654;51.054;3.654;2022-10-16T07:03:49;6.72;;;2.63;;
36659;SDS011;22654;51.054;3.654;2022-10-16T07:06:16;9.60;;;3.03;;
36659;SDS011;22654;51.054;3.654;2022-10-16T07:08:44;2.45;;;2.10;;
36659;SDS011;22654;51.054;3.654;2022-10-16T07:11:12;5.55;;;2.35;;
36659;SDS011;22654;51.054;3.654;2022-10-16T07:13:41;7.43;;;2.40;;
36659;SDS011;22654;51.054;3.654;2022-10-16T07:16:10;8.05;;;2.53;;
36659;SDS011;22654;51.054;3.654;2022-10-16T07:18:37;4.38;;;2.80;;
36659;SDS011;22654;51.054;3.654;2022-10-16T07:21:06;6.32;;;2.80;;
36659;SDS011;22654;51.054;3.654;2022-10-16T07:23:33;4.35;;;2.20;;
36659;SDS011;22654;51.054;3.654;2022-10-16T07:25:59;4.97;;;2.30;;
36659;SDS011;22654;51.054;3.654;2022-10-16T07:28:25;5.10;;;2.38;;
36659;SDS011;22654;51.054;3.654;2022-10-16T07:30:51;4.00;;;2.35;;
36659;SDS011;22654;51.054;3.654;2022-10-16T07:33:17;4.70;;;2.42;;
36659;SDS011;22654;51.054;3.654;2022-10-16T07:35:50;4.63;;;2.60;;
36659;SDS011;22654;51.054;3.654;2022-10-16T07:38:17;4.15;;;2.22;;
36659;SDS011;22654;51.054;3.654;2022-10-16T07:40:43;5.15;;;1.77;;
36659;SDS011;22654;51.054;3.654;2022-10-16T07:43:09;7.53;;;2.90;;
36659;SDS011;22654;51.054;3.654;2022-10-16T07:45:36;5.90;;;1.95;;
36659;SDS011;22654;51.054;3.654;2022-10-16T07:48:02;3.40;;;2.08;;
36659;SDS011;22654;51.054;3.654;2022-10-16T07:50:27;4.72;;;2.30;;
36659;SDS011;22654;51.054;3.654;2022-10-16T07:52:53;5.05;;;1.95;;
36659;SDS011;22654;51.054;3.654;2022-10-16T07:55:19;3.70;;;1.90;;
36659;SDS011;22654;51.054;3.654;2022-10-16T07:57:45;7.15;;;2.05;;
36659;SDS011;22654;51.054;3.654;2022-10-16T08:00:14;8.77;;;2.05;;
36659;SDS011;22654;51.054;3.654;2022-10-16T08:02:40;5.53;;;2.22;;
36659;SDS011;22654;51.054;3.654;2022-10-16T08:05:06;7.28;;;2.05;;
36659;SDS011;22654;51.054;3.654;2022-10-16T08:07:32;6.18;;;2.25;;
36659;SDS011;22654;51.054;3.654;2022-10-16T08:09:58;5.22;;;2.28;;
36659;SDS011;22654;51.054;3.654;2022-10-16T08:12:25;4.93;;;1.80;;
36659;SDS011;22654;51.054;3.654;2022-10-16T08:14:51;11.40;;;2.08;;
36659;SDS011;22654;51.054;3.654;2022-10-16T08:17:20;5.00;;;2.20;;
36659;SDS011;22654;51.054;3.654;2022-10-16T08:19:46;6.20;;;1.92;;
36659;SDS011;22654;51.054;3.654;2022-10-16T08:22:15;6.07;;;2.10;;
36659;SDS011;22654;51.054;3.654;2022-10-16T08:24:41;7.88;;;2.63;;
36659;SDS011;22654;51.054;3.654;2022-10-16T08:27:06;7.03;;;2.15;;
36659;SDS011;22654;51.054;3.654;2022-10-16T08:29:34;4.25;;;2.25;;
36659;SDS011;22654;51.054;3.654;2022-10-16T08:32:00;4.15;;;2.00;;
36659;SDS011;22654;51.054;3.654;2022-10-16T08:34:25;4.57;;;2.08;;
36659;SDS011;22654;51.054;3.654;2022-10-16T08:36:54;3.55;;;1.85;;
36659;SDS011;22654;51.054;3.654;2022-10-16T08:39:20;3.88;;;1.65;;
36659;SDS011;22654;51.054;3.654;2022-10-16T08:42:04;2.47;;;1.80;;
36659;SDS011;22654;51.054;3.654;2022-10-16T08:47:35;4.93;;;2.05;;
36659;SDS011;22654;51.054;3.654;2022-10-16T08:50:24;5.93;;;2.00;;
36659;SDS011;22654;51.054;3.654;2022-10-16T08:52:55;6.97;;;2.30;;
36659;SDS011;22654;51.054;3.654;2022-10-16T08:58:13;9.07;;;2.10;;
36659;SDS011;22654;51.054;3.654;2022-10-16T09:00:48;3.28;;;1.63;;
36659;SDS011;22654;51.054;3.654;2022-10-16T09:12:01;5.53;;;2.28;;
36659;SDS011;22654;51.054;3.654;2022-10-16T09:23:26;7.80;;;2.30;;
36659;SDS011;22654;51.054;3.654;2022-10-16T09:25:50;5.13;;;1.92;;
36659;SDS011;22654;51.054;3.654;2022-10-16T09:28:18;7.00;;;1.98;;
36659;SDS011;22654;51.054;3.654;2022-10-16T09:30:44;4.43;;;2.20;;
36659;SDS011;22654;51.054;3.654;2022-10-16T09:33:13;5.55;;;1.95;;
36659;SDS011;22654;51.054;3.654;2022-10-16T09:35:42;6.07;;;1.83;;
36659;SDS011;22654;51.054;3.654;2022-10-16T09:40:53;6.85;;;1.90;;
36659;SDS011;22654;51.054;3.654;2022-10-16T09:46:07;5.57;;;1.75;;
36659;SDS011;22654;51.054;3.654;2022-10-16T09:48:49;7.60;;;1.77;;
36659;SDS011;22654;51.054;3.654;2022-10-16T09:51:21;4.30;;;1.88;;
36659;SDS011;22654;51.054;3.654;2022-10-16T09:53:54;10.52;;;2.00;;
36659;SDS011;22654;51.054;3.654;2022-10-16T09:56:34;7.68;;;1.83;;
36659;SDS011;22654;51.054;3.654;2022-10-16T10:01:50;5.80;;;1.90;;
36659;SDS011;22654;51.054;3.654;2022-10-16T10:04:17;10.35;;;2.13;;
36659;SDS011;22654;51.054;3.654;2022-10-16T10:06:45;9.25;;;2.35;;
36659;SDS011;22654;51.054;3.654;2022-10-16T10:09:20;18.88;;;4.13;;
36659;SDS011;22654;51.054;3.654;2022-10-16T10:16:50;8.85;;;2.20;;
36659;SDS011;22654;51.054;3.654;2022-10-16T10:19:19;7.03;;;1.73;;
36659;SDS011;22654;51.054;3.654;2022-10-16T10:21:49;9.93;;;2.10;;
36659;SDS011;22654;51.054;3.654;2022-10-16T10:24:17;9.02;;;2.67;;
36659;SDS011;22654;51.054;3.654;2022-10-16T10:26:47;8.07;;;1.52;;
36659;SDS011;22654;51.054;3.654;2022-10-16T10:32:24;7.50;;;2.25;;
36659;SDS011;22654;51.054;3.654;2022-10-16T10:37:36;6.68;;;1.80;;
36659;SDS011;22654;51.054;3.654;2022-10-16T10:40:45;8.30;;;1.80;;
36659;SDS011;22654;51.054;3.654;2022-10-16T10:51:57;8.27;;;2.00;;
36659;SDS011;22654;51.054;3.654;2022-10-16T10:57:06;8.25;;;1.88;;
36659;SDS011;22654;51.054;3.654;2022-10-16T10:59:55;9.98;;;2.20;;
36659;SDS011;22654;51.054;3.654;2022-10-16T11:02:48;4.82;;;1.58;;
36659;SDS011;22654;51.054;3.654;2022-10-16T11:08:19;7.03;;;1.83;;
36659;SDS011;22654;51.054;3.654;2022-10-16T11:11:03;7.45;;;1.85;;
36659;SDS011;22654;51.054;3.654;2022-10-16T11:13:36;8.98;;;1.90;;
36659;SDS011;22654;51.054;3.654;2022-10-16T11:16:10;11.10;;;1.70;;
36659;SDS011;22654;51.054;3.654;2022-10-16T11:21:08;7.22;;;2.03;;
36659;SDS011;22654;51.054;3.654;2022-10-16T11:26:28;6.82;;;2.22;;
36659;SDS011;22654;51.054;3.654;2022-10-16T11:28:59;13.45;;;2.08;;
36659;SDS011;22654;51.054;3.654;2022-10-16T11:34:22;6.95;;;1.77;;
36659;SDS011;22654;51.054;3.654;2022-10-16T11:39:27;5.82;;;1.30;;
36659;SDS011;22654;51.054;3.654;2022-10-16T11:47:24;3.67;;;1.42;;
36659;SDS011;22654;51.054;3.654;2022-10-16T11:50:01;10.05;;;1.88;;
36659;SDS011;22654;51.054;3.654;2022-10-16T11:55:24;5.53;;;1.80;;
36659;SDS011;22654;51.054;3.654;2022-10-16T11:58:02;7.97;;;1.77;;
36659;SDS011;22654;51.054;3.654;2022-10-16T12:00:39;7.20;;;2.22;;
36659;SDS011;22654;51.054;3.654;2022-10-16T12:08:29;4.35;;;1.42;;
36659;SDS011;22654;51.054;3.654;2022-10-16T12:11:19;6.13;;;1.58;;
36659;SDS011;22654;51.054;3.654;2022-10-16T12:13:52;6.03;;;1.50;;
36659;SDS011;22654;51.054;3.654;2022-10-16T12:19:22;5.57;;;1.60;;
36659;SDS011;22654;51.054;3.654;2022-10-16T12:21:49;9.25;;;2.40;;
36659;SDS011;22654;51.054;3.654;2022-10-16T12:24:29;6.78;;;2.00;;
36659;SDS011;22654;51.054;3.654;2022-10-16T12:27:27;5.45;;;2.20;;
36659;SDS011;22654;51.054;3.654;2022-10-16T12:30:00;9.32;;;1.90;;
36659;SDS011;22654;51.054;3.654;2022-10-16T12:32:29;8.32;;;1.58;;
36659;SDS011;22654;51.054;3.654;2022-10-16T12:34:56;6.93;;;1.52;;
36659;SDS011;22654;51.054;3.654;2022-10-16T12:39:59;8.07;;;1.38;;
36659;SDS011;22654;51.054;3.654;2022-10-16T12:42:50;4.18;;;1.33;;
36659;SDS011;22654;51.054;3.654;2022-10-16T12:45:32;5.82;;;1.33;;
36659;SDS011;22654;51.054;3.654;2022-10-16T12:48:00;4.38;;;1.27;;
36659;SDS011;22654;51.054;3.654;2022-10-16T12:53:01;5.18;;;1.38;;
36659;SDS011;22654;51.054;3.654;2022-10-16T12:55:42;3.00;;;1.10;;
36659;SDS011;22654;51.054;3.654;2022-10-16T13:06:26;7.53;;;1.55;;
36659;SDS011;22654;51.054;3.654;2022-10-16T13:09:16;3.70;;;1.25;;
36659;SDS011;22654;51.054;3.654;2022-10-16T13:17:30;6.45;;;1.48;;
36659;SDS011;22654;51.054;3.654;2022-10-16T13:28:02;4.75;;;1.52;;
36659;SDS011;22654;51.054;3.654;2022-10-16T13:30:31;4.80;;;1.02;;
36659;SDS011;22654;51.054;3.654;2022-10-16T13:35:36;4.88;;;1.58;;
36659;SDS011;22654;51.054;3.654;2022-10-16T13:38:21;6.95;;;1.60;;
36659;SDS011;22654;51.054;3.654;2022-10-16T13:43:45;5.28;;;1.20;;
36659;SDS011;22654;51.054;3.654;2022-10-16T13:46:15;5.13;;;1.30;;
36659;SDS011;22654;51.054;3.654;2022-10-16T13:48:59;5.05;;;1.30;;
36659;SDS011;22654;51.054;3.654;2022-10-16T13:51:29;4.15;;;1.30;;
36659;SDS011;22654;51.054;3.654;2022-10-16T13:53:56;2.78;;;1.40;;
36659;SDS011;22654;51.054;3.654;2022-10-16T13:56:22;5.30;;;1.70;;
36659;SDS011;22654;51.054;3.654;2022-10-16T13:59:05;10.52;;;2.35;;
36659;SDS011;22654;51.054;3.654;2022-10-16T14:01:47;5.32;;;1.48;;
36659;SDS011;22654;51.054;3.654;2022-10-16T14:04:13;4.88;;;1.27;;
36659;SDS011;22654;51.054;3.654;2022-10-16T14:06:41;6.20;;;1.10;;
36659;SDS011;22654;51.054;3.654;2022-10-16T14:09:27;4.18;;;1.10;;
36659;SDS011;22654;51.054;3.654;2022-10-16T14:11:56;4.05;;;0.95;;
36659;SDS011;22654;51.054;3.654;2022-10-16T14:14:25;5.45;;;1.15;;
36659;SDS011;22654;51.054;3.654;2022-10-16T14:16:56;4.65;;;1.15;;
36659;SDS011;22654;51.054;3.654;2022-10-16T14:19:23;7.07;;;1.27;;
36659;SDS011;22654;51.054;3.654;2022-10-16T14:21:53;5.18;;;1.20;;
36659;SDS011;22654;51.054;3.654;2022-10-16T14:24:27;3.15;;;1.30;;
36659;SDS011;22654;51.054;3.654;2022-10-16T14:26:57;3.88;;;1.35;;
36659;SDS011;22654;51.054;3.654;2022-10-16T14:29:24;4.65;;;1.75;;
36659;SDS011;22654;51.054;3.654;2022-10-16T14:31:59;6.05;;;1.40;;
36659;SDS011;22654;51.054;3.654;2022-10-16T14:34:28;5.78;;;1.58;;
36659;SDS011;22654;51.054;3.654;2022-10-16T14:37:00;3.92;;;1.20;;
36659;SDS011;22654;51.054;3.654;2022-10-16T14:39:32;5.88;;;1.58;;
36659;SDS011;22654;51.054;3.654;2022-10-16T14:41:58;1.98;;;1.02;;
36659;SDS011;22654;51.054;3.654;2022-10-16T14:44:33;3.33;;;1.13;;
36659;SDS011;22654;51.054;3.654;2022-10-16T14:47:18;2.70;;;1.40;;
36659;SDS011;22654;51.054;3.654;2022-10-16T14:49:49;3.35;;;1.08;;
36659;SDS011;22654;51.054;3.654;2022-10-16T14:52:16;2.20;;;1.45;;
36659;SDS011;22654;51.054;3.654;2022-10-16T14:54:42;3.40;;;1.40;;
36659;SDS011;22654;51.054;3.654;2022-10-16T14:57:18;3.22;;;1.38;;
36659;SDS011;22654;51.054;3.654;2022-10-16T14:59:46;1.55;;;1.05;;
36659;SDS011;22654;51.054;3.654;2022-10-16T15:02:33;5.47;;;1.17;;
36659;SDS011;22654;51.054;3.654;2022-10-16T15:05:13;3.92;;;1.05;;
36659;SDS011;22654;51.054;3.654;2022-10-16T15:07:51;5.43;;;1.08;;
36659;SDS011;22654;51.054;3.654;2022-10-16T15:10:18;2.95;;;1.52;;
36659;SDS011;22654;51.054;3.654;2022-10-16T15:12:46;5.40;;;2.05;;
36659;SDS011;22654;51.054;3.654;2022-10-16T15:15:20;0.88;;;0.88;;
36659;SDS011;22654;51.054;3.654;2022-10-16T15:17:51;1.33;;;0.93;;
36659;SDS011;22654;51.054;3.654;2022-10-16T15:20:21;3.78;;;1.20;;
36659;SDS011;22654;51.054;3.654;2022-10-16T15:22:51;3.15;;;1.23;;
36659;SDS011;22654;51.054;3.654;2022-10-16T15:25:31;6.10;;;1.33;;
36659;SDS011;22654;51.054;3.654;2022-10-16T15:28:03;14.48;;;1.83;;
36659;SDS011;22654;51.054;3.654;2022-10-16T15:30:29;3.78;;;1.25;;
36659;SDS011;22654;51.054;3.654;2022-10-16T15:32:56;3.78;;;1.00;;
36659;SDS011;22654;51.054;3.654;2022-10-16T15:35:22;3.60;;;1.50;;
36659;SDS011;22654;51.054;3.654;2022-10-16T15:37:51;6.13;;;1.70;;
36659;SDS011;22654;51.054;3.654;2022-10-16T15:40:18;2.95;;;1.17;;
36659;SDS011;22654;51.054;3.654;2022-10-16T15:42:45;2.42;;;1.27;;
36659;SDS011;22654;51.054;3.654;2022-10-16T15:45:14;5.07;;;1.40;;
36659;SDS011;22654;51.054;3.654;2022-10-16T15:47:41;4.38;;;1.33;;
36659;SDS011;22654;51.054;3.654;2022-10-16T15:50:08;1.63;;;1.30;;
36659;SDS011;22654;51.054;3.654;2022-10-16T15:52:36;3.47;;;1.70;;
36659;SDS011;22654;51.054;3.654;2022-10-16T15:55:05;3.17;;;1.60;;
36659;SDS011;22654;51.054;3.654;2022-10-16T15:57:32;3.83;;;1.63;;
36659;SDS011;22654;51.054;3.654;2022-10-16T15:59:57;2.90;;;1.98;;
36659;SDS011;22654;51.054;3.654;2022-10-16T16:02:24;4.28;;;2.88;;
36659;SDS011;22654;51.054;3.654;2022-10-16T16:04:49;6.68;;;4.03;;
36659;SDS011;22654;51.054;3.654;2022-10-16T16:07:15;4.30;;;4.00;;
36659;SDS011;22654;51.054;3.654;2022-10-16T16:09:41;7.18;;;3.20;;
36659;SDS011;22654;51.054;3.654;2022-10-16T16:12:09;2.67;;;2.03;;
36659;SDS011;22654;51.054;3.654;2022-10-16T16:14:34;3.60;;;1.63;;
36659;SDS011;22654;51.054;3.654;2022-10-16T16:17:00;3.22;;;1.50;;
36659;SDS011;22654;51.054;3.654;2022-10-16T16:19:27;3.15;;;1.63;;
36659;SDS011;22654;51.054;3.654;2022-10-16T16:21:53;5.72;;;1.65;;
36659;SDS011;22654;51.054;3.654;2022-10-16T16:24:18;4.00;;;1.70;;
36659;SDS011;22654;51.054;3.654;2022-10-16T16:26:45;3.20;;;1.30;;
36659;SDS011;22654;51.054;3.654;2022-10-16T16:29:11;3.10;;;1.67;;
36659;SDS011;22654;51.054;3.654;2022-10-16T16:31:38;3.08;;;1.48;;
36659;SDS011;22654;51.054;3.654;2022-10-16T16:34:06;1.52;;;1.40;;
36659;SDS011;22654;51.054;3.654;2022-10-16T16:36:32;3.50;;;1.63;;
36659;SDS011;22654;51.054;3.654;2022-10-16T16:38:59;5.18;;;1.80;;
36659;SDS011;22654;51.054;3.654;2022-10-16T16:41:28;3.10;;;2.03;;
36659;SDS011;22654;51.054;3.654;2022-10-16T16:43:55;9.98;;;2.25;;
36659;SDS011;22654;51.054;3.654;2022-10-16T16:46:26;4.22;;;2.15;;
36659;SDS011;22654;51.054;3.654;2022-10-16T16:48:53;3.45;;;2.22;;
36659;SDS011;22654;51.054;3.654;2022-10-16T16:51:20;2.67;;;1.90;;
36659;SDS011;22654;51.054;3.654;2022-10-16T16:53:48;2.92;;;2.33;;
36659;SDS011;22654;51.054;3.654;2022-10-16T16:56:15;3.20;;;2.90;;
36659;SDS011;22654;51.054;3.654;2022-10-16T16:58:41;5.40;;;3.75;;
36659;SDS011;22654;51.054;3.654;2022-10-16T17:01:10;16.02;;;10.07;;
36659;SDS011;22654;51.054;3.654;2022-10-16T17:03:41;18.27;;;10.70;;
36659;SDS011;22654;51.054;3.654;2022-10-16T17:06:12;21.45;;;10.75;;